createdAt,value
2023-04-16T00:00:29.632Z,461.75
2023-04-16T00:03:35.981Z,446.77
2023-04-16T00:06:46.110Z,458.24
2023-04-16T00:09:53.032Z,462.59
2023-04-16T00:12:59.865Z,439.50
2023-04-16T00:16:05.957Z,461.00
2023-04-16T00:19:12.716Z,492.15
2023-04-16T00:22:21.304Z,512.81
2023-04-16T00:25:28.111Z,529.55
2023-04-16T00:28:34.045Z,489.49
2023-04-16T00:31:41.271Z,438.35
2023-04-16T00:34:47.252Z,438.53
2023-04-16T00:37:56.629Z,444.59
2023-04-16T00:41:02.784Z,440.99
2023-04-16T00:44:09.647Z,431.34
2023-04-16T00:47:16.362Z,457.60
2023-04-16T00:50:23.480Z,504.89
2023-04-16T00:53:33.598Z,514.43
2023-04-16T00:56:41.828Z,493.96
2023-04-16T00:59:47.736Z,503.86
2023-04-16T01:02:55.499Z,489.97
2023-04-16T01:06:01.647Z,476.01
2023-04-16T01:09:11.528Z,451.46
2023-04-16T01:12:17.500Z,521.78
2023-04-16T01:15:24.338Z,482.63
2023-04-16T01:18:30.852Z,466.29
2023-04-16T01:21:40.175Z,423.11
2023-04-16T01:24:46.078Z,393.32
2023-04-16T01:27:55.194Z,382.18
2023-04-16T01:31:01.727Z,362.14
2023-04-16T01:34:18.791Z,356.26
2023-04-16T01:37:27.492Z,385.78
2023-04-16T01:40:34.425Z,378.98
2023-04-16T01:43:40.579Z,351.63
2023-04-16T01:46:48.028Z,343.91
2023-04-16T01:49:54.221Z,354.04
2023-04-16T01:53:05.370Z,363.46
2023-04-16T01:56:12.153Z,356.56
2023-04-16T01:59:18.086Z,370.86
2023-04-16T02:02:28.459Z,381.46
2023-04-16T02:05:34.454Z,394.02
2023-04-16T02:08:44.009Z,398.07
2023-04-16T02:11:49.949Z,367.26
2023-04-16T02:14:57.176Z,361.84
2023-04-16T02:18:06.646Z,374.46
2023-04-16T02:21:14.482Z,383.16
2023-04-16T02:24:24.871Z,396.38
2023-04-16T02:27:32.241Z,393.23
2023-04-16T02:30:50.578Z,385.53
2023-04-16T02:33:59.332Z,387.57
2023-04-16T02:37:05.311Z,385.42
2023-04-16T02:40:15.591Z,398.49
2023-04-16T02:43:21.864Z,436.37
2023-04-16T02:46:29.331Z,417.01
2023-04-16T02:49:36.110Z,416.34
2023-04-16T02:52:42.949Z,398.42
2023-04-16T02:55:57.906Z,388.78
2023-04-16T02:59:04.695Z,359.51
2023-04-16T03:02:11.298Z,351.44
2023-04-16T03:05:18.455Z,342.81
2023-04-16T03:08:29.657Z,324.81
2023-04-16T03:11:39.037Z,301.16
2023-04-16T03:14:45.045Z,286.74
2023-04-16T03:17:52.406Z,318.42
2023-04-16T03:20:58.282Z,390.90
2023-04-16T03:24:05.193Z,398.44
2023-04-16T03:27:14.397Z,381.41
2023-04-16T03:30:21.363Z,410.75
2023-04-16T03:33:29.337Z,384.43
2023-04-16T03:36:36.304Z,384.72
2023-04-16T03:39:42.575Z,397.75
2023-04-16T03:42:59.584Z,448.25
2023-04-16T03:46:09.389Z,472.38
2023-04-16T03:49:16.441Z,521.58
2023-04-16T03:52:22.923Z,503.85
2023-04-16T03:55:41.701Z,498.11
2023-04-16T03:58:52.683Z,462.00
2023-04-16T04:02:01.897Z,430.69
2023-04-16T04:05:08.913Z,399.63
2023-04-16T04:08:17.324Z,387.96
2023-04-16T04:11:23.718Z,393.66
2023-04-16T04:14:40.130Z,363.65
2023-04-16T04:17:46.670Z,350.38
2023-04-16T04:20:53.537Z,333.93
2023-04-16T04:24:03.698Z,323.54
2023-04-16T04:27:13.545Z,327.91
2023-04-16T04:30:22.444Z,314.90
2023-04-16T04:33:29.986Z,300.91
2023-04-16T04:36:36.000Z,315.54
2023-04-16T04:39:42.740Z,298.45
2023-04-16T04:42:48.882Z,255.73
2023-04-16T04:45:58.410Z,252.29
2023-04-16T04:49:14.118Z,252.37
2023-04-16T04:52:26.523Z,260.06
2023-04-16T04:55:32.432Z,273.35
2023-04-16T04:58:39.201Z,333.42
2023-04-16T05:01:47.857Z,489.59
2023-04-16T05:04:54.511Z,360.12
2023-04-16T05:08:00.528Z,302.61
2023-04-16T05:11:07.766Z,267.45
2023-04-16T05:14:13.695Z,239.29
2023-04-16T05:17:23.104Z,248.39
2023-04-16T05:20:28.972Z,255.76
2023-04-16T05:23:35.743Z,271.96
2023-04-16T05:26:41.765Z,303.19
2023-04-16T05:29:51.622Z,273.86
2023-04-16T05:33:00.266Z,248.55
2023-04-16T05:36:07.937Z,253.33
2023-04-16T05:39:14.251Z,242.25
2023-04-16T05:42:21.270Z,213.12
2023-04-16T05:45:28.124Z,196.23
2023-04-16T05:48:37.679Z,175.29
2023-04-16T05:51:43.754Z,173.15
2023-04-16T05:54:50.717Z,178.57
2023-04-16T05:57:56.648Z,171.19
2023-04-16T06:01:04.669Z,175.34
2023-04-16T06:04:13.474Z,174.49
2023-04-16T06:07:20.514Z,172.27
2023-04-16T06:10:26.842Z,193.90
2023-04-16T06:13:33.675Z,167.92
2023-04-16T06:16:39.575Z,137.68
2023-04-16T06:19:49.272Z,164.31
2023-04-16T06:22:55.233Z,228.64
2023-04-16T06:26:02.216Z,221.74
2023-04-16T06:29:11.070Z,213.32
2023-04-16T06:32:18.298Z,205.62
2023-04-16T06:35:28.229Z,211.59
2023-04-16T06:38:35.002Z,211.61
2023-04-16T06:41:41.229Z,247.89
2023-04-16T06:44:48.163Z,285.55
2023-04-16T06:47:54.233Z,260.89
2023-04-16T06:51:04.240Z,232.00
2023-04-16T06:54:12.445Z,214.59
2023-04-16T06:57:19.243Z,242.17
2023-04-16T07:00:25.525Z,253.24
2023-04-16T07:03:34.688Z,267.15
2023-04-16T07:06:43.833Z,196.34
2023-04-16T07:09:50.739Z,197.55
2023-04-16T07:13:04.533Z,185.77
2023-04-16T07:16:11.682Z,175.38
2023-04-16T07:19:17.755Z,149.95
2023-04-16T07:22:27.278Z,153.36
2023-04-16T07:25:35.470Z,160.93
2023-04-16T07:28:42.186Z,201.41
2023-04-16T07:31:49.432Z,152.94
2023-04-16T07:34:59.423Z,141.92
2023-04-16T07:38:10.970Z,142.43
2023-04-16T07:41:18.302Z,121.83
2023-04-16T07:44:24.322Z,119.94
2023-04-16T07:47:31.078Z,133.12
2023-04-16T07:50:37.164Z,151.56
2023-04-16T07:53:49.039Z,129.91
2023-04-16T07:56:55.694Z,122.30
2023-04-16T08:00:02.508Z,118.26
2023-04-16T08:03:19.112Z,125.89
2023-04-16T08:06:26.886Z,131.50
2023-04-16T08:09:36.169Z,137.00
2023-04-16T08:12:43.055Z,131.71
2023-04-16T08:15:50.680Z,137.40
2023-04-16T08:18:57.530Z,127.12
2023-04-16T08:22:05.021Z,139.15
2023-04-16T08:25:16.502Z,146.63
2023-04-16T08:28:22.501Z,126.12
2023-04-16T08:31:32.174Z,129.05
2023-04-16T08:34:38.445Z,118.45
2023-04-16T08:37:46.574Z,108.78
2023-04-16T08:41:06.009Z,101.74
2023-04-16T08:44:22.910Z,112.24
2023-04-16T08:47:39.833Z,113.46
2023-04-16T08:50:49.846Z,111.33
2023-04-16T08:54:07.468Z,106.23
2023-04-16T08:57:25.359Z,116.67
2023-04-16T09:00:34.839Z,99.31
2023-04-16T09:03:42.769Z,91.86
2023-04-16T09:06:51.618Z,87.18
2023-04-16T09:10:01.270Z,81.81
2023-04-16T09:13:30.847Z,84.16
2023-04-16T09:16:40.200Z,87.06
2023-04-16T09:19:54.983Z,86.50
2023-04-16T09:23:01.680Z,80.64
2023-04-16T09:26:09.461Z,76.84
2023-04-16T09:29:38.994Z,63.85
2023-04-16T09:32:45.419Z,69.23
2023-04-16T09:35:54.855Z,65.89
2023-04-16T09:39:01.189Z,66.13
2023-04-16T09:42:09.357Z,65.14
2023-04-16T09:45:22.292Z,67.70
2023-04-16T09:48:34.247Z,61.32
2023-04-16T09:51:46.310Z,56.71
2023-04-16T09:54:55.163Z,63.08
2023-04-16T09:58:05.785Z,67.26
2023-04-16T10:01:17.550Z,56.18
2023-04-16T10:04:27.280Z,54.00
2023-04-16T10:07:46.884Z,55.00
2023-04-16T10:10:53.182Z,65.07
2023-04-16T10:14:01.200Z,61.69
2023-04-16T10:17:15.448Z,57.80
2023-04-16T10:20:25.899Z,54.68
2023-04-16T10:23:32.703Z,51.35
2023-04-16T10:26:45.070Z,48.91
2023-04-16T10:29:53.459Z,56.71
2023-04-16T10:33:05.143Z,52.65
2023-04-16T10:36:14.050Z,43.16
2023-04-16T10:39:24.383Z,48.06
2023-04-16T10:42:30.808Z,45.45
2023-04-16T10:45:41.887Z,64.88
2023-04-16T10:48:51.120Z,50.52
2023-04-16T10:52:07.644Z,42.11
2023-04-16T10:55:21.157Z,41.01
2023-04-16T10:58:31.931Z,48.83
2023-04-16T11:01:44.371Z,41.11
2023-04-16T11:04:53.916Z,39.90
2023-04-16T11:08:16.718Z,39.05
2023-04-16T11:11:25.629Z,39.51
2023-04-16T11:14:32.413Z,41.88
2023-04-16T11:17:53.896Z,48.20
2023-04-16T11:21:03.499Z,51.99
2023-04-16T11:24:15.702Z,53.25
2023-04-16T11:27:21.658Z,55.93
2023-04-16T11:30:34.514Z,55.46
2023-04-16T11:33:41.796Z,54.94
2023-04-16T11:36:54.095Z,58.09
2023-04-16T11:40:00.477Z,56.17
2023-04-16T11:43:20.174Z,54.97
2023-04-16T11:46:27.772Z,66.70
2023-04-16T11:49:39.093Z,64.62
2023-04-16T11:52:47.834Z,64.41
2023-04-16T11:55:55.399Z,60.70
2023-04-16T11:59:21.031Z,55.58
2023-04-16T12:02:42.895Z,52.41
2023-04-16T12:05:49.080Z,59.33
2023-04-16T12:08:58.517Z,59.36
2023-04-16T12:12:04.490Z,61.18
2023-04-16T12:15:12.823Z,63.92
2023-04-16T12:18:19.732Z,64.01
2023-04-16T12:21:26.861Z,62.69
2023-04-16T12:24:37.205Z,60.36
2023-04-16T12:27:53.994Z,61.12
2023-04-16T12:31:00.325Z,61.16
2023-04-16T12:34:07.943Z,60.32
2023-04-16T12:37:15.210Z,58.77
2023-04-16T12:40:25.395Z,60.93
2023-04-16T12:43:31.368Z,60.15
2023-04-16T12:46:40.234Z,56.82
2023-04-16T12:49:46.228Z,53.64
2023-04-16T12:52:53.347Z,49.28
2023-04-16T12:56:02.065Z,50.35
2023-04-16T12:59:10.767Z,50.45
2023-04-16T13:02:17.166Z,47.89
2023-04-16T13:05:24.150Z,46.16
2023-04-16T13:08:30.323Z,46.42
2023-04-16T13:11:39.748Z,47.73
2023-04-16T13:14:45.680Z,53.82
2023-04-16T13:17:52.497Z,52.94
2023-04-16T13:20:58.966Z,49.64
2023-04-16T13:24:05.715Z,51.53
2023-04-16T13:27:16.387Z,51.31
2023-04-16T13:30:25.792Z,56.60
2023-04-16T13:33:32.101Z,50.86
2023-04-16T13:36:38.971Z,51.70
2023-04-16T13:39:45.592Z,51.82
2023-04-16T13:42:55.209Z,43.66
2023-04-16T13:46:01.685Z,43.92
2023-04-16T13:49:08.970Z,45.00
2023-04-16T13:52:15.222Z,46.31
2023-04-16T13:55:22.201Z,47.29
2023-04-16T13:58:30.849Z,42.98
2023-04-16T14:01:37.954Z,41.72
2023-04-16T14:04:44.000Z,41.54
2023-04-16T14:07:54.046Z,40.33
2023-04-16T14:11:01.642Z,42.49
2023-04-16T14:14:11.447Z,44.70
2023-04-16T14:17:17.415Z,46.28
2023-04-16T14:20:27.223Z,47.29
2023-04-16T14:23:33.468Z,51.98
2023-04-16T14:26:40.408Z,48.68
2023-04-16T14:29:49.541Z,49.10
2023-04-16T14:32:57.008Z,50.89
2023-04-16T14:36:03.588Z,50.75
2023-04-16T14:39:10.723Z,49.57
2023-04-16T14:42:16.770Z,47.20
2023-04-16T14:45:27.513Z,66.02
2023-04-16T14:48:33.744Z,72.27
2023-04-16T14:51:40.802Z,68.86
2023-04-16T14:54:48.143Z,78.61
2023-04-16T14:57:55.211Z,87.26
2023-04-16T15:01:04.377Z,65.89
2023-04-16T15:04:12.013Z,99.07
2023-04-16T15:07:21.558Z,56.44
2023-04-16T15:10:28.668Z,57.03
2023-04-16T15:13:36.673Z,56.74
2023-04-16T15:16:50.528Z,58.69
2023-04-16T15:19:56.831Z,82.58
2023-04-16T15:23:03.802Z,99.21
2023-04-16T15:26:10.015Z,105.81
2023-04-16T15:29:16.744Z,99.90
2023-04-16T15:32:25.639Z,116.27
2023-04-16T15:35:32.537Z,119.98
2023-04-16T15:38:39.626Z,112.03
2023-04-16T15:42:00.733Z,100.93
2023-04-16T15:45:08.987Z,111.22
2023-04-16T15:48:18.232Z,120.91
2023-04-16T15:51:24.353Z,119.76
2023-04-16T15:54:32.161Z,115.28
2023-04-16T15:57:38.263Z,116.88
2023-04-16T16:00:47.838Z,116.63
2023-04-16T16:03:56.821Z,109.08
2023-04-16T16:07:05.122Z,110.98
2023-04-16T16:10:13.523Z,127.20
2023-04-16T16:13:20.602Z,137.00
2023-04-16T16:16:26.600Z,131.24
2023-04-16T16:19:36.653Z,125.98
2023-04-16T16:22:45.535Z,310.04
2023-04-16T16:25:56.012Z,143.97
2023-04-16T16:29:02.308Z,126.13
2023-04-16T16:32:11.955Z,121.39
2023-04-16T16:35:26.522Z,116.15
2023-04-16T16:38:33.332Z,109.21
2023-04-16T16:41:42.350Z,106.08
2023-04-16T16:44:49.911Z,111.80
2023-04-16T16:47:56.949Z,108.02
2023-04-16T16:51:06.768Z,105.78
2023-04-16T16:54:12.766Z,114.12
2023-04-16T16:57:21.030Z,107.32
2023-04-16T17:00:27.913Z,107.98
2023-04-16T17:03:34.776Z,109.98
2023-04-16T17:06:43.588Z,112.62
2023-04-16T17:09:50.345Z,106.66
2023-04-16T17:12:56.336Z,111.28
2023-04-16T17:16:03.123Z,115.41
2023-04-16T17:19:09.437Z,118.18
2023-04-16T17:22:19.424Z,121.60
2023-04-16T17:25:25.408Z,121.38
2023-04-16T17:28:32.284Z,125.04
2023-04-16T17:31:45.242Z,127.12
2023-04-16T17:34:52.163Z,138.36
2023-04-16T17:38:06.736Z,148.73
2023-04-16T17:41:13.556Z,156.90
2023-04-16T17:44:19.470Z,171.51
2023-04-16T17:47:26.267Z,177.96
2023-04-16T17:50:32.312Z,177.86
2023-04-16T17:53:42.878Z,181.76
2023-04-16T17:56:49.195Z,200.50
2023-04-16T17:59:56.101Z,210.34
2023-04-16T18:03:05.245Z,223.01
2023-04-16T18:06:12.075Z,276.76
2023-04-16T18:09:27.084Z,280.60
2023-04-16T18:12:36.807Z,284.23
2023-04-16T18:15:42.962Z,275.71
2023-04-16T18:18:49.969Z,267.12
2023-04-16T18:21:56.066Z,249.01
2023-04-16T18:25:05.591Z,284.12
2023-04-16T18:28:14.056Z,318.63
2023-04-16T18:31:22.085Z,304.82
2023-04-16T18:34:31.605Z,291.61
2023-04-16T18:37:38.492Z,292.94
2023-04-16T18:40:47.303Z,298.72
2023-04-16T18:43:54.371Z,300.46
2023-04-16T18:47:00.351Z,283.06
2023-04-16T18:50:16.505Z,292.06
2023-04-16T18:53:22.732Z,283.35
2023-04-16T18:56:38.564Z,411.83
2023-04-16T18:59:44.564Z,385.78
2023-04-16T19:02:51.354Z,334.99
2023-04-16T19:05:57.636Z,328.05
2023-04-16T19:09:04.370Z,326.82
2023-04-16T19:12:13.201Z,401.71
2023-04-16T19:15:20.035Z,382.60
2023-04-16T19:18:26.336Z,621.12
2023-04-16T19:21:35.858Z,670.63
2023-04-16T19:24:41.886Z,418.15
2023-04-16T19:27:51.554Z,339.62
2023-04-16T19:30:58.788Z,336.62
2023-04-16T19:34:18.102Z,363.18
2023-04-16T19:37:24.023Z,760.54
2023-04-16T19:40:33.433Z,971.78
2023-04-16T19:43:42.164Z,973.95
2023-04-16T19:46:49.241Z,891.80
2023-04-16T19:49:55.824Z,858.37
2023-04-16T19:53:03.906Z,855.84
2023-04-16T19:56:10.082Z,886.66
2023-04-16T19:59:19.485Z,1053.66
2023-04-16T20:02:25.722Z,2481.48
2023-04-16T20:05:33.347Z,1598.72
2023-04-16T20:08:39.330Z,1435.19
2023-04-16T20:11:46.614Z,1487.93
2023-04-16T20:14:55.604Z,1645.20
2023-04-16T20:18:08.553Z,1700.07
2023-04-16T20:21:14.557Z,1412.66
2023-04-16T20:24:24.445Z,1130.79
2023-04-16T20:27:30.408Z,1020.65
2023-04-16T20:30:41.152Z,911.71
2023-04-16T20:33:47.317Z,1005.24
2023-04-16T20:37:08.169Z,1102.76
2023-04-16T20:40:15.347Z,1026.35
2023-04-16T20:43:26.435Z,864.25
2023-04-16T20:46:39.633Z,821.34
2023-04-16T20:49:46.936Z,670.16
2023-04-16T20:52:53.480Z,680.14
2023-04-16T20:56:00.785Z,852.73
2023-04-16T20:59:15.656Z,883.81
2023-04-16T21:02:31.152Z,822.21
2023-04-16T21:05:37.226Z,913.04
2023-04-16T21:08:43.938Z,889.86
2023-04-16T21:11:49.941Z,847.45
2023-04-16T21:14:57.478Z,864.86
2023-04-16T21:18:06.194Z,940.03
2023-04-16T21:21:13.111Z,689.33
2023-04-16T21:24:19.190Z,615.34
2023-04-16T21:27:26.090Z,699.84
2023-04-16T21:30:32.741Z,576.70
2023-04-16T21:33:44.633Z,635.39
2023-04-16T21:36:50.621Z,812.49
2023-04-16T21:39:57.655Z,827.57
2023-04-16T21:43:03.679Z,819.30
2023-04-16T21:46:10.572Z,738.39
2023-04-16T21:49:19.374Z,929.35
2023-04-16T21:52:26.824Z,768.47
2023-04-16T21:55:32.766Z,810.15
2023-04-16T21:58:39.666Z,740.90
2023-04-16T22:01:45.601Z,575.88
2023-04-16T22:04:55.066Z,511.18
2023-04-16T22:08:04.028Z,553.76
2023-04-16T22:11:17.670Z,573.47
2023-04-16T22:14:23.581Z,524.89
2023-04-16T22:17:30.635Z,458.63
2023-04-16T22:20:49.002Z,440.78
2023-04-16T22:23:55.774Z,436.57
2023-04-16T22:27:01.689Z,466.62
2023-04-16T22:30:10.550Z,445.84
2023-04-16T22:33:16.637Z,408.03
2023-04-16T22:36:26.723Z,394.38
2023-04-16T22:39:32.609Z,380.59
2023-04-16T22:42:39.238Z,305.05
2023-04-16T22:45:46.592Z,262.70
2023-04-16T22:48:53.422Z,215.70
2023-04-16T22:52:05.170Z,203.03
2023-04-16T22:55:17.625Z,183.82
2023-04-16T22:58:23.688Z,182.47
2023-04-16T23:01:34.171Z,170.93
2023-04-16T23:04:40.106Z,165.95
2023-04-16T23:07:49.495Z,186.42
2023-04-16T23:10:55.655Z,177.36
2023-04-16T23:14:02.798Z,152.16
2023-04-16T23:17:08.654Z,153.61
2023-04-16T23:20:16.269Z,155.51
2023-04-16T23:23:32.086Z,151.97
2023-04-16T23:26:42.907Z,157.43
2023-04-16T23:29:48.936Z,155.00
2023-04-16T23:32:55.845Z,160.03
2023-04-16T23:36:01.959Z,177.84
2023-04-16T23:39:11.932Z,229.65
2023-04-16T23:42:22.834Z,289.21
2023-04-16T23:45:29.700Z,267.89
2023-04-16T23:48:35.718Z,272.79
2023-04-16T23:51:42.387Z,297.98
2023-04-16T23:54:55.753Z,273.88
2023-04-16T23:58:02.473Z,279.25
